Time;durP1;ratioP1;P1;durP2;ratioP2;P2;SDS_P1;SDS_P2;PMS_P1;PMS_P2;Temp;Humidity;BMP_temperature;BMP_pressure;BME280_temperature;BME280_humidity;BME280_pressure;Samples;Min_cycle;Max_cycle;Signal;HPM_P1;HPM_P2
2022/08/20 00:00:17;;;;;;;6.60;5.93;;;19.20;99.90;;;;;;5093629;28;20635;-70
2022/08/20 00:02:46;;;;;;;6.80;6.13;;;19.10;99.90;;;;;;5093470;28;20175;-70
2022/08/20 00:05:13;;;;;;;6.90;6.20;;;19.00;99.90;;;;;;5091859;28;20206;-70
2022/08/20 00:07:38;;;;;;;11.37;5.87;;;19.00;99.90;;;;;;5093085;28;20216;-71
2022/08/20 00:10:05;;;;;;;8.63;5.95;;;18.90;99.90;;;;;;5093523;28;20294;-70
2022/08/20 00:12:33;;;;;;;12.90;5.90;;;18.90;99.90;;;;;;5093526;28;20295;-70
2022/08/20 00:15:00;;;;;;;9.43;4.97;;;18.90;99.90;;;;;;5093474;28;20175;-70
2022/08/20 00:17:27;;;;;;;11.53;5.03;;;18.80;99.90;;;;;;5093602;28;20180;-70
2022/08/20 00:19:52;;;;;;;8.20;4.63;;;18.70;99.90;;;;;;5093097;28;20523;-70
2022/08/20 00:22:21;;;;;;;6.27;4.83;;;18.70;99.90;;;;;;5093507;28;20639;-70
2022/08/20 00:24:47;;;;;;;7.37;5.13;;;18.70;99.90;;;;;;5093387;28;20836;-70
2022/08/20 00:27:12;;;;;;;9.93;5.33;;;18.80;99.90;;;;;;5093339;28;20176;-70
2022/08/20 00:29:38;;;;;;;6.40;5.30;;;18.70;99.90;;;;;;5093121;28;20580;-70
2022/08/20 00:32:04;;;;;;;7.53;5.60;;;18.70;99.90;;;;;;5093463;28;20266;-70
2022/08/20 00:34:29;;;;;;;9.10;6.27;;;18.60;99.90;;;;;;5091696;28;20263;-70
2022/08/20 00:36:55;;;;;;;11.07;6.27;;;18.70;99.90;;;;;;5093353;28;20321;-70
2022/08/20 00:39:20;;;;;;;8.15;6.75;;;18.70;99.90;;;;;;5093078;28;20229;-69
2022/08/20 00:41:46;;;;;;;10.77;6.07;;;18.70;99.90;;;;;;5093222;28;20646;-69
2022/08/20 00:44:16;;;;;;;7.60;5.47;;;18.60;99.90;;;;;;5092842;28;20221;-69
2022/08/20 00:46:43;;;;;;;11.37;5.70;;;18.60;99.90;;;;;;5093159;28;20160;-70
2022/08/20 00:49:18;;;;;;;10.33;5.50;;;18.60;99.90;;;;;;5092839;28;20168;-70
2022/08/20 00:51:57;;;;;;;10.20;6.07;;;18.50;99.90;;;;;;5093295;28;20178;-70
2022/08/20 00:54:33;;;;;;;6.97;5.37;;;18.40;99.90;;;;;;5095383;28;20164;-70
2022/08/20 00:57:07;;;;;;;12.17;5.90;;;18.30;99.90;;;;;;5097374;28;20711;-70
2022/08/20 00:59:36;;;;;;;9.77;5.50;;;18.30;99.90;;;;;;5097361;28;20179;-70
2022/08/20 01:02:04;;;;;;;11.07;5.73;;;18.30;99.90;;;;;;5097202;28;20170;-70
2022/08/20 01:04:32;;;;;;;9.73;5.77;;;18.30;99.90;;;;;;5096630;28;20225;-70
2022/08/20 01:06:59;;;;;;;8.27;5.63;;;18.20;99.90;;;;;;5096986;28;20212;-70
2022/08/20 01:09:25;;;;;;;8.87;5.80;;;18.30;99.90;;;;;;5095782;28;20674;-70
2022/08/20 01:11:51;;;;;;;12.53;5.87;;;18.20;99.90;;;;;;5095734;28;20187;-68
2022/08/20 01:16:51;;;;;;;9.57;5.93;;;18.20;99.90;;;;;;5096945;28;20528;-70
2022/08/20 01:19:23;;;;;;;16.63;6.00;;;18.10;99.90;;;;;;5096514;28;20184;-69
2022/08/20 01:21:50;;;;;;;10.47;5.90;;;18.10;99.90;;;;;;5096976;28;20233;-70
2022/08/20 01:24:25;;;;;;;11.40;6.07;;;18.00;99.90;;;;;;5095369;28;20654;-70
2022/08/20 01:26:50;;;;;;;11.17;6.07;;;17.90;99.90;;;;;;5096783;28;20255;-70
2022/08/20 01:29:22;;;;;;;9.23;5.33;;;17.90;99.90;;;;;;5096704;28;20247;-70
2022/08/20 01:31:48;;;;;;;14.83;5.37;;;17.80;99.90;;;;;;5096230;28;20180;-70
2022/08/20 01:34:16;;;;;;;12.83;5.90;;;17.80;99.90;;;;;;5096510;28;20259;-70
2022/08/20 01:36:44;;;;;;;14.60;5.77;;;17.80;99.90;;;;;;5096654;28;20170;-70
2022/08/20 01:39:13;;;;;;;11.60;5.57;;;17.70;99.90;;;;;;5096466;28;20639;-70
2022/08/20 01:42:07;;;;;;;11.70;5.50;;;17.70;99.90;;;;;;5096481;28;20164;-70
2022/08/20 01:44:36;;;;;;;12.97;5.30;;;17.70;99.90;;;;;;5096428;28;20168;-70
2022/08/20 01:47:15;;;;;;;13.53;5.50;;;17.60;99.90;;;;;;5094798;28;20225;-70
2022/08/20 01:49:44;;;;;;;11.60;5.07;;;17.60;99.90;;;;;;5096153;28;20199;-70
2022/08/20 01:52:16;;;;;;;14.57;5.23;;;17.50;99.90;;;;;;5096497;28;20168;-70
2022/08/20 01:54:42;;;;;;;12.10;5.13;;;17.50;99.90;;;;;;5096304;28;20764;-70
2022/08/20 01:57:16;;;;;;;11.97;5.20;;;17.40;99.90;;;;;;5096238;28;20180;-70
2022/08/20 01:59:42;;;;;;;13.77;4.90;;;17.30;99.90;;;;;;5095992;28;20172;-70
2022/08/20 02:02:09;;;;;;;14.47;5.23;;;17.30;99.90;;;;;;5095815;28;20180;-70
2022/08/20 02:04:35;;;;;;;13.77;5.13;;;17.30;99.90;;;;;;5095438;28;20180;-70
2022/08/20 02:07:04;;;;;;;10.37;5.17;;;17.20;99.90;;;;;;5093564;28;20216;-70
2022/08/20 02:09:36;;;;;;;14.93;5.30;;;17.20;99.90;;;;;;5095886;28;20207;-70
2022/08/20 02:12:04;;;;;;;18.87;5.93;;;17.10;99.90;;;;;;5094683;28;20176;-70
2022/08/20 02:14:30;;;;;;;12.20;5.10;;;17.00;99.90;;;;;;5095891;28;20708;-70
2022/08/20 02:16:59;;;;;;;14.60;5.73;;;16.90;99.90;;;;;;5095331;28;20171;-70
2022/08/20 02:19:37;;;;;;;19.80;6.30;;;16.90;99.90;;;;;;5095693;28;20191;-70
2022/08/20 02:22:16;;;;;;;13.33;5.50;;;16.90;99.90;;;;;;5094642;28;20255;-70
2022/08/20 02:24:42;;;;;;;15.40;5.90;;;16.90;99.90;;;;;;5095616;28;20187;-70
2022/08/20 02:27:09;;;;;;;16.67;5.90;;;16.90;99.90;;;;;;5095513;28;20168;-70
2022/08/20 02:29:34;;;;;;;14.90;5.40;;;16.80;99.90;;;;;;5095418;28;20230;-70
2022/08/20 02:32:01;;;;;;;17.13;6.27;;;16.90;99.90;;;;;;5095222;28;20199;-69
2022/08/20 02:34:26;;;;;;;15.77;6.33;;;16.80;99.90;;;;;;5095308;28;20164;-71
2022/08/20 02:36:53;;;;;;;14.20;6.30;;;16.80;99.90;;;;;;5095481;28;20217;-69
2022/08/20 02:39:18;;;;;;;14.07;6.40;;;16.80;99.90;;;;;;5095287;28;20635;-68
2022/08/20 02:41:44;;;;;;;14.37;6.27;;;16.70;99.90;;;;;;5094031;28;20176;-69
2022/08/20 02:44:10;;;;;;;16.90;7.03;;;16.70;99.90;;;;;;5093728;28;20174;-69
2022/08/20 02:46:35;;;;;;;17.83;6.60;;;16.60;99.90;;;;;;5094713;28;20194;-69
2022/08/20 02:49:01;;;;;;;16.90;6.57;;;16.60;99.90;;;;;;5095691;28;20168;-69
2022/08/20 02:51:27;;;;;;;16.53;7.00;;;16.60;99.90;;;;;;5095029;28;20583;-69
2022/08/20 02:53:52;;;;;;;20.60;6.97;;;16.60;99.90;;;;;;5094969;28;20200;-69
2022/08/20 02:56:18;;;;;;;17.53;7.03;;;16.60;99.90;;;;;;5093551;28;20687;-69
2022/08/20 02:58:44;;;;;;;18.03;6.93;;;16.60;99.90;;;;;;5094458;28;20255;-69
2022/08/20 03:01:13;;;;;;;15.97;7.10;;;16.60;99.90;;;;;;5094667;28;20294;-69
2022/08/20 03:03:40;;;;;;;23.57;7.47;;;16.60;99.90;;;;;;5094562;28;20207;-69
2022/08/20 03:06:07;;;;;;;18.43;7.37;;;16.60;99.90;;;;;;5093440;28;20643;-69
2022/08/20 03:08:34;;;;;;;20.30;8.20;;;16.50;99.90;;;;;;5094276;28;20580;-69
2022/08/20 03:11:00;;;;;;;22.57;8.60;;;16.40;99.90;;;;;;5094432;28;20199;-69
2022/08/20 03:13:26;;;;;;;16.93;7.70;;;16.50;99.90;;;;;;5094222;28;20632;-69
2022/08/20 03:15:54;;;;;;;18.60;7.30;;;16.50;99.90;;;;;;5094393;28;20163;-70
2022/08/20 03:18:21;;;;;;;16.13;7.50;;;16.50;99.90;;;;;;5094273;28;20160;-69
2022/08/20 03:20:48;;;;;;;16.13;7.87;;;16.50;99.90;;;;;;5094496;28;20178;-69
2022/08/20 03:23:16;;;;;;;16.33;7.57;;;16.50;99.90;;;;;;5094276;28;20727;-71
2022/08/20 03:25:42;;;;;;;19.83;7.33;;;16.50;99.90;;;;;;5094467;28;20163;-70
2022/08/20 03:28:09;;;;;;;16.83;7.27;;;16.50;99.90;;;;;;5093948;28;20659;-69
2022/08/20 03:30:35;;;;;;;21.57;7.93;;;16.60;99.90;;;;;;5094262;28;20227;-70
2022/08/20 03:33:01;;;;;;;21.10;7.63;;;16.50;99.90;;;;;;5094077;28;20243;-70
2022/08/20 03:35:28;;;;;;;19.57;7.67;;;16.40;99.90;;;;;;5094423;28;20759;-70
2022/08/20 03:37:54;;;;;;;19.63;7.33;;;16.40;99.90;;;;;;5094232;28;20246;-69
2022/08/20 03:40:27;;;;;;;19.50;8.07;;;16.40;99.90;;;;;;5094292;28;20207;-70
2022/08/20 03:42:53;;;;;;;18.77;8.77;;;16.40;99.90;;;;;;5093537;28;20168;-69
2022/08/20 03:45:20;;;;;;;20.53;7.80;;;16.30;99.90;;;;;;5093858;28;20183;-69
2022/08/20 03:47:47;;;;;;;22.10;8.10;;;16.30;99.90;;;;;;5093918;28;20168;-69
2022/08/20 03:50:13;;;;;;;19.23;7.97;;;16.20;99.90;;;;;;5093702;28;20212;-70
2022/08/20 03:52:39;;;;;;;18.73;8.10;;;16.20;99.90;;;;;;5093879;28;20290;-71
2022/08/20 03:55:07;;;;;;;17.13;7.87;;;16.20;99.90;;;;;;5093616;28;20259;-70
2022/08/20 03:57:34;;;;;;;22.40;8.47;;;16.30;99.90;;;;;;5092737;28;20172;-70
2022/08/20 04:00:00;;;;;;;23.53;8.67;;;16.20;99.90;;;;;;5093618;28;20178;-69
2022/08/20 04:02:27;;;;;;;17.60;7.93;;;16.20;99.90;;;;;;5093574;28;20627;-70
2022/08/20 04:04:53;;;;;;;19.97;7.90;;;16.20;99.90;;;;;;5093612;28;20180;-70
2022/08/20 04:07:26;;;;;;;23.33;8.73;;;16.20;99.90;;;;;;5091971;28;20224;-71
2022/08/20 04:09:54;;;;;;;20.37;8.27;;;16.30;99.90;;;;;;5093322;28;20219;-70
2022/08/20 04:12:20;;;;;;;24.57;9.40;;;16.20;99.90;;;;;;5093352;28;20255;-70
2022/08/20 04:14:46;;;;;;;26.43;8.53;;;16.20;99.90;;;;;;5093517;28;20171;-69
2022/08/20 04:17:13;;;;;;;22.93;8.83;;;16.20;99.90;;;;;;5093242;28;20172;-70
2022/08/20 04:19:39;;;;;;;19.90;8.80;;;16.10;99.90;;;;;;5093258;28;20156;-70
2022/08/20 04:22:06;;;;;;;20.30;8.40;;;16.10;99.90;;;;;;5093367;28;20172;-69
2022/08/20 04:24:33;;;;;;;19.50;8.73;;;16.00;99.90;;;;;;5091792;28;20196;-69
2022/08/20 04:27:01;;;;;;;21.10;9.40;;;15.90;99.90;;;;;;5092918;28;20164;-69
2022/08/20 04:29:27;;;;;;;22.17;8.40;;;15.90;99.90;;;;;;5092704;28;20172;-71
2022/08/20 04:31:54;;;;;;;21.47;9.33;;;15.90;99.90;;;;;;5093298;28;20176;-69
2022/08/20 04:34:20;;;;;;;19.37;8.23;;;15.90;99.90;;;;;;5093240;28;20310;-70
2022/08/20 04:36:46;;;;;;;26.10;9.10;;;15.90;99.90;;;;;;5093070;28;20639;-70
2022/08/20 04:39:13;;;;;;;21.70;9.17;;;15.90;99.90;;;;;;5092946;28;20171;-70
2022/08/20 04:41:39;;;;;;;18.93;8.97;;;15.90;99.90;;;;;;5092986;28;20221;-70
2022/08/20 04:44:04;;;;;;;21.83;9.10;;;15.90;99.90;;;;;;5092995;28;20175;-69
2022/08/20 04:46:31;;;;;;;17.47;8.97;;;15.90;99.90;;;;;;5092890;28;20515;-70
2022/08/20 04:48:57;;;;;;;19.20;9.13;;;15.90;99.90;;;;;;5092955;28;20263;-69
2022/08/20 04:51:24;;;;;;;20.90;9.93;;;15.90;99.90;;;;;;5092853;28;20203;-70
2022/08/20 04:53:52;;;;;;;23.93;9.03;;;15.80;99.90;;;;;;5092788;28;20179;-70
2022/08/20 04:56:22;;;;;;;28.17;9.83;;;15.90;99.90;;;;;;5092682;28;20168;-69
2022/08/20 04:58:47;;;;;;;24.27;9.33;;;15.90;99.90;;;;;;5092490;28;20335;-70
2022/08/20 05:01:13;;;;;;;21.70;10.33;;;15.80;99.90;;;;;;5092866;28;20164;-70
2022/08/20 05:03:40;;;;;;;18.93;8.90;;;15.80;99.90;;;;;;5092794;28;20180;-70
2022/08/20 05:06:09;;;;;;;26.43;9.37;;;16.00;99.90;;;;;;5091650;28;20175;-70
2022/08/20 05:08:37;;;;;;;23.73;9.20;;;16.20;99.90;;;;;;5092545;28;20231;-69
2022/08/20 05:11:04;;;;;;;18.83;8.37;;;16.50;99.90;;;;;;5092291;28;20219;-70
2022/08/20 05:13:29;;;;;;;18.50;7.97;;;16.70;99.90;;;;;;5092703;28;20186;-69
2022/08/20 05:15:56;;;;;;;17.13;7.93;;;17.00;99.90;;;;;;5092477;28;20180;-69
2022/08/20 05:18:25;;;;;;;23.00;8.20;;;17.40;99.90;;;;;;5092578;28;20171;-70
2022/08/20 05:20:51;;;;;;;19.63;7.63;;;17.80;99.90;;;;;;5092214;28;20160;-69
2022/08/20 05:23:18;;;;;;;19.27;7.23;;;18.30;99.90;;;;;;5091235;28;20768;-69
2022/08/20 05:25:46;;;;;;;16.97;6.93;;;18.70;84.90;;;;;;5092574;28;20195;-69
2022/08/20 05:28:24;;;;;;;15.40;6.57;;;19.00;70.10;;;;;;5091269;28;20667;-70
2022/08/20 05:30:51;;;;;;;13.27;6.60;;;19.50;41.30;;;;;;5092659;28;20502;-70
2022/08/20 05:33:19;;;;;;;15.50;6.68;;;19.90;28.40;;;;;;5091418;28;20172;-71
2022/08/20 05:35:47;;;;;;;13.57;6.28;;;20.40;2.30;;;;;;5092559;28;20533;-71
2022/08/20 05:38:17;;;;;;;15.35;6.22;;;20.60;1.00;;;;;;5092134;28;20577;-70
2022/08/20 05:40:43;;;;;;;10.40;5.88;;;20.70;1.00;;;;;;5094981;28;20168;-70
2022/08/20 05:43:09;;;;;;;19.42;6.63;;;20.90;1.00;;;;;;5096010;28;20247;-71
2022/08/20 05:45:37;;;;;;;16.80;6.03;;;21.50;1.00;;;;;;5096154;28;20587;-71
2022/08/20 05:48:15;;;;;;;15.25;5.70;;;22.00;1.00;;;;;;5095939;28;20179;-71
2022/08/20 05:50:44;;;;;;;13.73;5.95;;;22.30;1.00;;;;;;5095773;28;20203;-71
2022/08/20 05:53:09;;;;;;;15.48;5.88;;;22.90;1.00;;;;;;5094257;28;20192;-71
2022/08/20 05:55:36;;;;;;;14.50;6.00;;;23.40;1.00;;;;;;5095959;28;20324;-71
2022/08/20 05:58:05;;;;;;;9.80;5.50;;;23.90;1.00;;;;;;5095465;28;20198;-71
2022/08/20 06:00:32;;;;;;;10.70;5.53;;;23.90;99.90;;;;;;5095750;28;20607;-72
2022/08/20 06:05:43;;;;;;;14.45;5.82;;;24.40;1.00;;;;;;5095729;28;20195;-72
2022/08/20 06:08:10;;;;;;;11.10;5.50;;;23.70;99.90;;;;;;5094914;28;20311;-72
2022/08/20 06:10:37;;;;;;;19.48;6.25;;;23.10;1.00;;;;;;5095536;28;20749;-72
2022/08/20 06:13:03;;;;;;;11.77;5.55;;;22.80;1.00;;;;;;5095728;28;20200;-73
2022/08/20 06:15:30;;;;;;;14.40;6.10;;;23.30;1.00;;;;;;5095542;28;20196;-73
2022/08/20 06:17:55;;;;;;;10.85;5.32;;;24.60;99.90;;;;;;5094884;28;20582;-73
2022/08/20 06:20:21;;;;;;;12.02;5.32;;;25.50;1.00;;;;;;5095783;28;20200;-74
2022/08/20 06:22:47;;;;;;;9.27;4.80;;;26.50;99.90;;;;;;5094904;28;20188;-74
2022/08/20 06:25:13;;;;;;;14.82;5.32;;;27.40;1.00;;;;;;5095355;28;20172;-74
2022/08/20 06:27:41;;;;;;;13.70;5.85;;;27.90;1.00;;;;;;5095406;28;20172;-74
2022/08/20 06:30:09;;;;;;;11.73;5.18;;;28.90;99.90;;;;;;5095199;28;20291;-74
2022/08/20 06:32:34;;;;;;;11.25;5.63;;;30.00;1.00;;;;;;5095156;28;20208;-74
2022/08/20 06:35:02;;;;;;;10.63;5.32;;;30.40;1.00;;;;;;5095231;28;20206;-73
2022/08/20 06:37:30;;;;;;;8.00;4.78;;;30.70;1.00;;;;;;5094799;28;20183;-73
2022/08/20 06:40:01;;;;;;;10.30;5.22;;;30.30;1.00;;;;;;5094768;28;20200;-74
2022/08/20 06:42:27;;;;;;;11.35;5.13;;;30.90;1.00;;;;;;5095052;28;20210;-74
2022/08/20 06:44:53;;;;;;;14.10;5.18;;;30.60;99.90;;;;;;5094977;28;20164;-74
2022/08/20 06:47:20;;;;;;;10.93;5.47;;;31.00;99.90;;;;;;5095037;28;20256;-74
2022/08/20 06:49:46;;;;;;;13.82;5.43;;;31.50;99.90;;;;;;5094719;28;20200;-74
2022/08/20 06:52:15;;;;;;;12.73;5.85;;;32.00;99.90;;;;;;5093687;28;20254;-74
2022/08/20 06:54:42;;;;;;;11.63;6.55;;;32.30;99.90;;;;;;5094155;28;20553;-74
2022/08/20 06:57:07;;;;;;;14.10;6.15;;;31.80;99.90;;;;;;5094425;28;20163;-74
2022/08/20 06:59:33;;;;;;;12.52;6.13;;;31.40;99.90;;;;;;5094455;28;20578;-73
2022/08/20 07:01:59;;;;;;;15.32;5.85;;;29.80;1.00;;;;;;5095055;28;20255;-73
2022/08/20 07:04:25;;;;;;;10.00;5.93;;;29.40;1.00;;;;;;5094646;28;20207;-73
2022/08/20 07:06:52;;;;;;;12.38;6.25;;;28.50;99.90;;;;;;5093969;28;20172;-74
2022/08/20 07:09:22;;;;;;;14.38;6.00;;;27.90;99.90;;;;;;5094209;28;20226;-74
2022/08/20 07:11:48;;;;;;;13.07;6.18;;;27.20;99.90;;;;;;5094785;28;20180;-74
2022/08/20 07:14:15;;;;;;;12.48;6.22;;;26.80;99.90;;;;;;5094382;28;20160;-74
2022/08/20 07:16:41;;;;;;;10.98;6.25;;;27.00;99.90;;;;;;5094162;28;20180;-73
2022/08/20 07:19:07;;;;;;;11.63;6.13;;;27.00;1.00;;;;;;5094203;28;20164;-73
2022/08/20 07:21:33;;;;;;;13.43;6.60;;;27.10;1.00;;;;;;5094077;28;20168;-73
2022/08/20 07:23:59;;;;;;;9.98;5.72;;;27.20;1.00;;;;;;5093775;28;20188;-74
2022/08/20 07:26:24;;;;;;;16.60;6.97;;;27.50;99.90;;;;;;5094006;28;20209;-73
2022/08/20 07:28:50;;;;;;;11.25;5.85;;;27.70;99.90;;;;;;5094052;28;20171;-72
2022/08/20 07:34:00;;;;;;;14.40;6.30;;;30.00;19.10;;;;;;5094216;28;20617;-74
2022/08/20 07:36:26;;;;;;;9.00;5.55;;;31.50;1.00;;;;;;5093533;28;20195;-75
2022/08/20 07:38:53;;;;;;;9.20;5.40;;;31.20;1.00;;;;;;5093993;28;20172;-75
2022/08/20 07:41:19;;;;;;;10.07;5.50;;;32.50;99.90;;;;;;5093522;28;20576;-75
2022/08/20 07:43:46;;;;;;;10.82;5.35;;;32.90;99.90;;;;;;5093860;28;20246;-75
2022/08/20 07:46:13;;;;;;;11.35;5.85;;;32.60;99.90;;;;;;5094199;28;20175;-75
2022/08/20 07:48:41;;;;;;;11.98;5.70;;;33.60;99.90;;;;;;5092884;28;20516;-75
2022/08/20 07:51:09;;;;;;;12.35;5.97;;;34.50;99.90;;;;;;5093766;28;20215;-75
2022/08/20 07:53:37;;;;;;;10.73;5.00;;;34.20;99.90;;;;;;5093796;28;20171;-75
2022/08/20 07:56:09;;;;;;;15.48;5.85;;;33.70;99.90;;;;;;5093407;28;20192;-75
2022/08/20 07:58:37;;;;;;;9.20;4.88;;;34.60;99.90;;;;;;5093030;28;20166;-75
2022/08/20 08:01:04;;;;;;;11.80;5.47;;;35.10;99.90;;;;;;5093097;28;20608;-75
2022/08/20 08:03:31;;;;;;;11.90;5.80;;;35.80;99.90;;;;;;5092063;28;20650;-75
2022/08/20 08:05:56;;;;;;;8.85;5.05;;;34.80;99.90;;;;;;5093416;28;20164;-74
2022/08/20 08:08:27;;;;;;;10.70;4.85;;;34.70;99.90;;;;;;5092726;28;20627;-74
2022/08/20 08:11:01;;;;;;;10.70;4.85;;;35.60;99.90;;;;;;5093561;28;20722;-74
2022/08/20 08:13:34;;;;;;;8.13;4.63;;;35.80;99.90;;;;;;5093338;28;20173;-73
2022/08/20 08:16:01;;;;;;;9.32;5.13;;;35.70;99.90;;;;;;5093480;28;20175;-73
2022/08/20 08:18:32;;;;;;;8.43;4.88;;;36.20;99.90;;;;;;5092783;28;20212;-73
2022/08/20 08:20:58;;;;;;;14.75;6.03;;;36.90;99.90;;;;;;5091842;28;20196;-72
2022/08/20 08:23:24;;;;;;;10.15;4.80;;;36.90;99.90;;;;;;5092996;28;20191;-73
2022/08/20 08:25:50;;;;;;;10.70;6.88;;;37.00;99.90;;;;;;5093018;28;20584;-73
2022/08/20 08:28:17;;;;;;;8.88;5.25;;;36.70;99.90;;;;;;5092760;28;20167;-73
2022/08/20 08:30:44;;;;;;;9.10;5.20;;;36.20;99.90;;;;;;5091909;28;20658;-73
2022/08/20 08:33:39;;;;;;;8.43;5.10;;;36.10;99.90;;;;;;5092912;28;20167;-73
2022/08/20 08:36:11;;;;;;;7.60;4.40;;;37.00;99.90;;;;;;5090869;28;20206;-73
2022/08/20 08:38:39;;;;;;;10.82;4.95;;;36.70;99.90;;;;;;5092869;28;20254;-73
2022/08/20 08:41:23;;;;;;;7.93;4.30;;;36.50;99.90;;;;;;5092726;28;20168;-73
2022/08/20 08:43:52;;;;;;;7.22;3.83;;;36.10;99.90;;;;;;5092939;28;20160;-72
2022/08/20 08:46:23;;;;;;;7.13;3.97;;;35.70;99.90;;;;;;5092578;28;20171;-72
2022/08/20 08:48:52;;;;;;;8.35;4.05;;;35.20;99.90;;;;;;5092753;28;20202;-72
2022/08/20 08:51:36;;;;;;;8.52;4.32;;;35.20;99.90;;;;;;5092807;28;20295;-73
2022/08/20 08:54:04;;;;;;;9.70;4.72;;;35.90;99.90;;;;;;5093151;28;20189;-73
2022/08/20 08:56:30;;;;;;;7.18;4.13;;;35.70;99.90;;;;;;5092742;28;20179;-74
2022/08/20 08:59:03;;;;;;;5.93;3.42;;;35.70;99.90;;;;;;5092189;28;20171;-73
2022/08/20 09:01:32;;;;;;;8.60;3.40;;;35.00;99.90;;;;;;5090987;28;20635;-72
2022/08/20 09:03:57;;;;;;;5.60;3.08;;;34.50;99.90;;;;;;5092929;28;20174;-72
2022/08/20 09:06:24;;;;;;;8.05;3.55;;;33.70;99.90;;;;;;5092120;28;20254;-73
2022/08/20 09:08:53;;;;;;;6.50;3.75;;;33.50;99.90;;;;;;5092448;28;20215;-74
2022/08/20 09:11:21;;;;;;;7.85;3.40;;;33.70;99.90;;;;;;5092194;28;20302;-73
2022/08/20 09:13:47;;;;;;;6.97;3.33;;;33.90;99.90;;;;;;5092666;28;20191;-73
2022/08/20 09:16:13;;;;;;;6.10;3.50;;;34.20;99.90;;;;;;5095385;28;20642;-73
2022/08/20 09:18:39;;;;;;;5.57;2.90;;;34.10;99.90;;;;;;5096373;28;20229;-73
2022/08/20 09:21:06;;;;;;;5.22;2.97;;;34.60;99.90;;;;;;5096829;28;20195;-73
2022/08/20 09:23:32;;;;;;;6.10;3.00;;;35.50;99.90;;;;;;5096499;28;20196;-73
2022/08/20 09:25:58;;;;;;;7.55;2.83;;;35.30;95.30;;;;;;5096273;28;20187;-73
2022/08/20 09:28:23;;;;;;;12.90;3.35;;;35.30;87.50;;;;;;5096599;28;20175;-73
2022/08/20 09:30:49;;;;;;;6.03;2.60;;;35.80;88.00;;;;;;5095701;28;20235;-74
2022/08/20 09:33:15;;;;;;;6.72;2.42;;;35.40;73.20;;;;;;5096375;28;20280;-74
2022/08/20 09:35:40;;;;;;;5.82;2.67;;;34.30;75.00;;;;;;5096643;28;20168;-75
2022/08/20 09:38:06;;;;;;;5.85;2.33;;;31.50;99.90;;;;;;5096170;28;20168;-74
2022/08/20 09:40:33;;;;;;;4.70;2.25;;;30.60;99.90;;;;;;5094410;28;20249;-73
2022/08/20 09:42:59;;;;;;;5.93;2.40;;;30.30;99.90;;;;;;5095906;28;20164;-73
2022/08/20 09:45:25;;;;;;;9.13;2.63;;;30.60;99.90;;;;;;5095650;28;20184;-73
2022/08/20 09:47:51;;;;;;;3.80;2.33;;;30.70;99.90;;;;;;5095812;28;20622;-73
2022/08/20 09:50:16;;;;;;;5.32;2.30;;;30.70;99.90;;;;;;5095146;28;20280;-74
2022/08/20 09:52:46;;;;;;;4.78;2.30;;;31.00;99.90;;;;;;5096498;28;20168;-74
2022/08/20 09:55:42;;;;;;;8.77;2.40;;;32.40;99.90;;;;;;5096423;28;20179;-76
2022/08/20 09:58:18;;;;;;;8.90;2.83;;;32.10;94.00;;;;;;5095683;28;20176;-76
2022/08/20 10:00:43;;;;;;;6.80;2.67;;;31.40;94.80;;;;;;5095040;28;20167;-74
2022/08/20 10:03:09;;;;;;;3.45;2.25;;;31.10;93.00;;;;;;5095641;28;20698;-74
2022/08/20 10:05:34;;;;;;;6.35;2.67;;;31.10;87.90;;;;;;5095582;28;20469;-74
2022/08/20 10:08:04;;;;;;;6.43;2.50;;;31.30;81.10;;;;;;5093698;28;20648;-74
2022/08/20 10:10:30;;;;;;;7.13;2.65;;;31.60;77.80;;;;;;5095478;28;20211;-75
2022/08/20 10:12:55;;;;;;;5.05;2.20;;;31.80;63.40;;;;;;5095582;28;20180;-75
2022/08/20 10:15:21;;;;;;;6.07;2.67;;;31.90;60.80;;;;;;5094867;28;20528;-75
2022/08/20 10:17:47;;;;;;;6.40;2.38;;;32.20;54.80;;;;;;5095369;28;20329;-75
2022/08/20 10:20:13;;;;;;;5.13;2.28;;;32.20;51.20;;;;;;5095683;28;20254;-75
2022/08/20 10:22:39;;;;;;;4.88;2.30;;;32.30;52.00;;;;;;5094856;28;20184;-75
2022/08/20 10:25:05;;;;;;;5.55;2.30;;;31.60;45.20;;;;;;5095055;28;20172;-75
2022/08/20 10:27:31;;;;;;;4.68;2.20;;;30.90;52.10;;;;;;5093778;28;20175;-75
2022/08/20 10:29:56;;;;;;;6.47;2.40;;;30.30;55.10;;;;;;5094872;28;20274;-75
2022/08/20 10:32:22;;;;;;;6.00;2.47;;;30.90;64.10;;;;;;5095398;28;20171;-75
2022/08/20 10:34:48;;;;;;;5.68;2.60;;;31.80;59.00;;;;;;5093856;28;20186;-76
2022/08/20 10:37:20;;;;;;;5.78;3.05;;;31.70;55.00;;;;;;5094620;28;20262;-75
2022/08/20 10:39:46;;;;;;;6.65;2.55;;;31.80;53.20;;;;;;5094967;28;20636;-76
2022/08/20 10:42:12;;;;;;;4.15;2.22;;;32.00;70.40;;;;;;5094690;28;20221;-76
2022/08/20 10:44:38;;;;;;;5.45;2.13;;;31.70;48.40;;;;;;5093386;28;20180;-76
2022/08/20 10:47:20;;;;;;;3.83;2.40;;;31.50;43.80;;;;;;5094862;28;20168;-76
2022/08/20 10:49:46;;;;;;;3.17;2.15;;;31.70;44.80;;;;;;5095074;28;20192;-76
2022/08/20 10:52:12;;;;;;;4.90;2.60;;;31.50;45.60;;;;;;5093800;28;20183;-76
2022/08/20 10:54:41;;;;;;;7.50;2.72;;;31.10;46.60;;;;;;5094485;28;20263;-76
2022/08/20 10:57:08;;;;;;;5.40;2.35;;;31.50;51.00;;;;;;5094343;28;20207;-77
2022/08/20 10:59:38;;;;;;;6.80;2.70;;;32.10;51.70;;;;;;5093990;28;20620;-76
2022/08/20 11:02:04;;;;;;;6.60;2.85;;;32.60;50.90;;;;;;5094898;28;20179;-76
2022/08/20 11:04:29;;;;;;;6.00;2.80;;;33.10;36.30;;;;;;5093105;28;20176;-76
2022/08/20 11:06:55;;;;;;;8.68;2.78;;;33.40;31.30;;;;;;5093763;28;20179;-77
2022/08/20 11:09:21;;;;;;;6.55;2.88;;;33.10;29.50;;;;;;5094144;28;20639;-77
2022/08/20 11:11:46;;;;;;;5.72;2.50;;;33.40;24.70;;;;;;5093887;28;20286;-76
2022/08/20 11:14:12;;;;;;;4.70;2.35;;;33.20;27.10;;;;;;5094512;28;20176;-77
2022/08/20 11:16:38;;;;;;;5.75;2.80;;;33.40;21.80;;;;;;5093998;28;20587;-75
2022/08/20 11:19:03;;;;;;;5.45;2.50;;;33.70;20.50;;;;;;5093533;28;20160;-76
2022/08/20 11:21:29;;;;;;;3.78;2.50;;;34.20;14.70;;;;;;5093957;28;20634;-76
2022/08/20 11:23:55;;;;;;;4.80;2.53;;;34.40;12.00;;;;;;5094052;28;20184;-76
2022/08/20 11:26:23;;;;;;;4.88;2.40;;;34.30;9.30;;;;;;5094070;28;20224;-75
2022/08/20 11:28:49;;;;;;;5.85;2.70;;;33.60;10.30;;;;;;5092631;28;20182;-76
2022/08/20 11:31:15;;;;;;;6.05;2.63;;;33.00;11.00;;;;;;5093789;28;20561;-76
2022/08/20 11:33:40;;;;;;;6.00;2.88;;;32.00;13.10;;;;;;5093476;28;20164;-76
2022/08/20 11:36:08;;;;;;;4.28;2.78;;;30.80;17.50;;;;;;5093747;28;20217;-75
2022/08/20 11:38:34;;;;;;;3.67;2.65;;;29.80;29.10;;;;;;5093353;28;20171;-74
2022/08/20 11:40:59;;;;;;;6.05;2.60;;;30.30;31.80;;;;;;5093287;28;20164;-74
2022/08/20 11:43:25;;;;;;;7.30;2.72;;;30.40;31.70;;;;;;5093288;28;20510;-74
2022/08/20 11:45:54;;;;;;;4.78;2.67;;;30.10;45.50;;;;;;5093599;28;20221;-74
2022/08/20 11:48:20;;;;;;;5.78;3.10;;;30.20;53.50;;;;;;5092062;28;20199;-74
2022/08/20 11:50:47;;;;;;;8.15;3.55;;;30.30;56.60;;;;;;5093745;28;20239;-75
2022/08/20 11:53:12;;;;;;;4.75;2.40;;;30.50;51.00;;;;;;5093290;28;20164;-76
2022/08/20 11:55:38;;;;;;;7.68;3.63;;;29.50;53.30;;;;;;5093041;28;20270;-74
2022/08/20 11:58:04;;;;;;;5.05;2.67;;;29.10;72.20;;;;;;5092005;28;20180;-75
2022/08/20 12:00:30;;;;;;;4.90;2.17;;;28.80;91.00;;;;;;5093390;28;20175;-74
2022/08/20 12:02:56;;;;;;;5.93;2.95;;;29.00;87.50;;;;;;5092943;28;20175;-74
2022/08/20 12:05:22;;;;;;;5.70;2.58;;;29.20;73.00;;;;;;5092799;28;20173;-73
2022/08/20 12:07:47;;;;;;;8.23;2.65;;;29.00;77.50;;;;;;5092603;28;20215;-74
2022/08/20 12:10:14;;;;;;;4.88;2.60;;;28.80;78.60;;;;;;5092828;28;20683;-74
2022/08/20 12:12:39;;;;;;;5.18;2.33;;;28.80;81.30;;;;;;5092769;28;20282;-74
2022/08/20 12:15:07;;;;;;;7.72;2.30;;;28.50;99.90;;;;;;5093074;28;20596;-74
2022/08/20 12:17:33;;;;;;;7.60;2.40;;;28.60;93.70;;;;;;5092953;28;20663;-73
2022/08/20 12:20:03;;;;;;;5.22;2.63;;;28.80;92.60;;;;;;5091385;28;20179;-74
2022/08/20 12:22:29;;;;;;;6.15;2.40;;;28.70;94.60;;;;;;5092941;28;20174;-75
2022/08/20 12:24:55;;;;;;;7.30;2.60;;;28.30;92.90;;;;;;5092663;28;20160;-74
2022/08/20 12:27:25;;;;;;;5.95;2.58;;;27.90;99.90;;;;;;5093144;28;20167;-74
2022/08/20 12:29:52;;;;;;;4.68;2.25;;;27.40;99.90;;;;;;5092417;28;20196;-74
2022/08/20 12:32:19;;;;;;;3.42;2.00;;;27.40;99.90;;;;;;5092915;28;20250;-73
2022/08/20 12:34:45;;;;;;;4.60;2.03;;;27.50;99.90;;;;;;5091420;28;20187;-74
2022/08/20 12:37:14;;;;;;;3.70;1.85;;;27.30;99.90;;;;;;5092793;28;20172;-74
2022/08/20 12:39:43;;;;;;;3.95;2.08;;;27.10;99.90;;;;;;5091998;28;20510;-73
2022/08/20 12:42:09;;;;;;;5.30;2.40;;;27.10;99.90;;;;;;5092981;28;20171;-73
2022/08/20 12:44:36;;;;;;;5.32;1.90;;;27.20;99.90;;;;;;5092102;28;20156;-73
2022/08/20 12:47:13;;;;;;;4.43;2.10;;;27.40;99.90;;;;;;5092577;28;20168;-73
2022/08/20 12:49:40;;;;;;;2.95;2.05;;;26.40;99.90;;;;;;5092822;28;20585;-73
2022/08/20 12:52:07;;;;;;;3.65;1.90;;;26.00;99.90;;;;;;5096301;28;20183;-72